Time;durP1;ratioP1;P1;durP2;ratioP2;P2;SDS_P1;SDS_P2;PMS_P1;PMS_P2;Temp;Humidity;BMP_temperature;BMP_pressure;BME280_temperature;BME280_humidity;BME280_pressure;Samples;Min_cycle;Max_cycle;Signal;HPM_P1;HPM_P2
2022/08/30 00:03:03;;;;;;;;;;;19.90;56.30;;;16.05;94.24;95727.25;4996064;28;19955;-44
2022/08/30 00:05:30;;;;;;;;;;;19.90;56.40;;;16.10;94.00;95737.88;4971597;28;19905;-47
2022/08/30 00:07:56;;;;;;;;;;;19.90;56.60;;;16.11;93.54;95731.44;4995533;28;19909;-44
2022/08/30 00:10:23;;;;;;;;;;;19.90;56.60;;;16.10;93.33;95737.88;4973964;28;20375;-44
2022/08/30 00:12:57;;;;;;;;;;;19.90;56.70;;;16.07;93.47;95741.16;4995727;28;20284;-45
2022/08/30 00:15:28;;;;;;;;;;;19.90;56.70;;;16.05;93.38;95738.00;4996106;28;19948;-45
2022/08/30 00:18:02;;;;;;;;;;;19.90;56.80;;;15.99;93.52;95739.16;5003311;28;19982;-45
2022/08/30 00:20:31;;;;;;;;;;;19.90;56.80;;;15.94;93.43;95740.03;4995995;28;20267;-46
2022/08/30 00:23:05;;;;;;;;;;;19.90;56.90;;;15.89;92.77;95751.66;4983396;28;19960;-44
2022/08/30 00:25:31;;;;;;;;;;;19.80;56.90;;;15.85;92.68;95749.84;4975858;28;20398;-45
2022/08/30 00:28:03;;;;;;;;;;;19.80;57.00;;;15.81;93.19;95744.28;4996468;28;19920;-44
2022/08/30 00:30:32;;;;;;;;;;;19.80;57.10;;;15.76;94.74;95732.81;4977979;28;19951;-46
2022/08/30 00:32:58;;;;;;;;;;;19.70;57.10;;;15.73;94.74;95739.56;4997045;28;19909;-46
2022/08/30 00:35:25;;;;;;;;;;;19.70;57.20;;;15.70;96.08;95735.59;4990118;28;19909;-46
2022/08/30 00:37:51;;;;;;;;;;;19.70;57.30;;;15.69;96.38;95735.88;4996956;28;20039;-45
2022/08/30 00:40:27;;;;;;;;;;;19.60;57.40;;;15.72;96.89;95741.44;4959773;28;19905;-44
2022/08/30 00:42:59;;;;;;;;;;;19.60;57.50;;;15.76;96.01;95738.97;4986653;28;19909;-46
2022/08/30 00:45:41;;;;;;;;;;;19.60;57.60;;;15.75;95.37;95723.97;4994197;28;20498;-44
2022/08/30 00:48:13;;;;;;;;;;;19.60;57.70;;;15.70;95.52;95726.75;4971719;28;19906;-45
2022/08/30 00:50:52;;;;;;;;;;;19.60;57.80;;;15.69;95.77;95730.50;4964629;28;19912;-45
2022/08/30 00:53:31;;;;;;;;;;;19.60;57.90;;;15.67;96.17;95716.59;4963970;28;19909;-44
2022/08/30 00:56:00;;;;;;;;;;;19.60;57.90;;;15.71;96.20;95722.97;4973052;28;20352;-46
2022/08/30 00:58:36;;;;;;;;;;;19.60;58.20;;;15.77;95.97;95726.38;4971341;28;19984;-44
2022/08/30 01:01:07;;;;;;;;;;;19.60;58.20;;;15.79;95.69;95724.97;4965400;28;19948;-44
2022/08/30 01:03:38;;;;;;;;;;;19.60;58.30;;;15.81;95.89;95732.75;4943476;28;19910;-46
2022/08/30 01:06:12;;;;;;;;;;;19.60;58.40;;;15.86;95.43;95732.66;4969155;28;19910;-45
2022/08/30 01:08:45;;;;;;;;;;;19.60;58.40;;;15.88;95.54;95725.09;4954119;28;19906;-47
2022/08/30 01:11:20;;;;;;;;;;;19.70;58.50;;;15.90;95.04;95728.28;4962193;28;19914;-44
2022/08/30 01:13:52;;;;;;;;;;;19.70;58.60;;;15.91;95.02;95727.97;4963084;28;19997;-46
2022/08/30 01:16:24;;;;;;;;;;;19.70;58.60;;;15.87;94.56;95724.31;4940549;28;19934;-45
2022/08/30 01:18:55;;;;;;;;;;;19.70;58.70;;;15.85;94.76;95729.16;4943028;28;19910;-44
2022/08/30 01:21:50;;;;;;;;;;;19.70;58.70;;;15.84;94.88;95732.94;4953355;28;19906;-47
2022/08/30 01:24:25;;;;;;;;;;;19.70;58.70;;;15.86;94.87;95738.03;4949254;28;19906;-44
2022/08/30 01:27:09;;;;;;;;;;;19.70;58.70;;;15.88;95.09;95738.53;4952881;28;19913;-46
2022/08/30 01:29:35;;;;;;;;;;;19.70;58.70;;;15.90;95.05;95729.09;4954022;28;19913;-45
2022/08/30 01:32:04;;;;;;;;;;;19.70;58.90;;;15.94;95.12;95735.44;4949943;28;19916;-44
2022/08/30 01:34:33;;;;;;;;;;;19.70;58.90;;;16.00;95.14;95730.00;4939274;28;19910;-46
2022/08/30 01:36:58;;;;;;;;;;;19.80;59.10;;;16.03;94.81;95735.59;4954969;28;20359;-45
2022/08/30 01:39:25;;;;;;;;;;;19.80;59.20;;;16.05;94.56;95729.94;4969063;28;19910;-44
2022/08/30 01:42:03;;;;;;;;;;;19.80;59.10;;;16.04;94.12;95731.00;4971033;28;19933;-44
2022/08/30 01:44:38;;;;;;;;;;;19.80;59.10;;;16.01;93.90;95729.69;4972643;28;19941;-44
2022/08/30 01:47:07;;;;;;;;;;;19.80;59.00;;;15.96;93.70;95729.81;4970819;28;19912;-47
2022/08/30 01:49:32;;;;;;;;;;;19.80;59.00;;;15.91;94.08;95737.94;4962514;28;19909;-46
2022/08/30 01:52:01;;;;;;;;;;;19.80;59.00;;;15.91;93.98;95740.63;4983634;28;19928;-45
2022/08/30 01:54:29;;;;;;;;;;;19.80;59.00;;;15.83;93.32;95739.41;4954121;28;19964;-44
2022/08/30 01:56:58;;;;;;;;;;;19.70;58.90;;;15.76;92.97;95744.34;4972598;28;20356;-47
2022/08/30 01:59:24;;;;;;;;;;;19.70;58.90;;;15.72;93.59;95737.97;4971366;28;20003;-48
2022/08/30 02:01:50;;;;;;;;;;;19.70;59.00;;;15.65;94.09;95746.38;4972786;28;19910;-48
2022/08/30 02:04:16;;;;;;;;;;;19.60;59.00;;;15.62;94.41;95748.84;4971016;28;19996;-46
2022/08/30 02:06:43;;;;;;;;;;;19.60;59.00;;;15.55;94.61;95745.75;4964397;28;19968;-45
2022/08/30 02:09:11;;;;;;;;;;;19.50;59.10;;;15.45;94.30;95744.81;4953968;28;19949;-47
2022/08/30 02:11:37;;;;;;;;;;;19.50;59.10;;;15.35;95.35;95734.19;4964224;28;20322;-51
2022/08/30 02:14:06;;;;;;;;;;;19.40;59.10;;;15.31;96.19;95735.09;4971459;28;20387;-44
2022/08/30 02:16:39;;;;;;;;;;;19.30;59.20;;;15.27;96.56;95737.56;4964882;28;20678;-45
2022/08/30 02:19:06;;;;;;;;;;;19.30;59.30;;;15.22;96.89;95738.41;4971703;28;20364;-45
2022/08/30 02:21:32;;;;;;;;;;;19.30;59.40;;;15.19;96.89;95730.16;4971646;28;19909;-45
2022/08/30 02:23:58;;;;;;;;;;;19.20;59.40;;;15.16;96.60;95730.72;4971010;28;19912;-44
2022/08/30 02:26:27;;;;;;;;;;;19.10;59.50;;;15.10;95.96;95732.66;4971018;28;19910;-44
2022/08/30 02:28:53;;;;;;;;;;;19.20;60.20;;;15.06;96.00;95723.63;4965872;28;19905;-46
2022/08/30 02:31:21;;;;;;;;;;;19.10;59.70;;;15.01;96.31;95721.00;4953350;28;19910;-45
2022/08/30 02:33:53;;;;;;;;;;;19.00;59.60;;;14.97;96.62;95722.66;4934183;28;19913;-44
2022/08/30 02:36:25;;;;;;;;;;;19.00;59.70;;;14.92;97.10;95722.75;4949635;28;19910;-46
2022/08/30 02:38:52;;;;;;;;;;;19.00;59.80;;;14.89;97.74;95724.13;4967529;28;19996;-44
2022/08/30 02:41:22;;;;;;;;;;;18.90;59.80;;;14.87;97.92;95725.50;4962940;28;20403;-44
2022/08/30 02:43:51;;;;;;;;;;;18.90;59.90;;;14.82;97.41;95726.34;4965075;28;19905;-44
2022/08/30 02:46:17;;;;;;;;;;;18.90;59.90;;;14.75;96.77;95713.28;4977330;28;20332;-44
2022/08/30 02:48:44;;;;;;;;;;;18.80;59.90;;;14.69;96.85;95716.31;4951954;28;19929;-45
2022/08/30 02:51:12;;;;;;;;;;;18.80;60.00;;;14.63;97.92;95718.25;4965863;28;19913;-45
2022/08/30 02:53:43;;;;;;;;;;;18.70;60.00;;;14.57;97.20;95719.41;4969936;28;19945;-44
2022/08/30 02:56:12;;;;;;;;;;;18.70;60.20;;;14.54;97.14;95722.66;4956899;28;20303;-44
2022/08/30 02:58:41;;;;;;;;;;;18.70;60.20;;;14.53;99.66;95718.38;4955190;28;19909;-43
2022/08/30 03:01:14;;;;;;;;;;;18.60;60.30;;;14.54;99.88;95715.44;4958457;28;19976;-45
2022/08/30 03:03:45;;;;;;;;;;;18.60;60.40;;;14.51;99.59;95707.97;4961020;28;19905;-45
2022/08/30 03:06:14;;;;;;;;;;;18.60;60.40;;;14.46;99.38;95701.81;4963987;28;19945;-45
2022/08/30 03:08:43;;;;;;;;;;;18.50;60.50;;;14.41;99.31;95702.66;4952867;28;19912;-45
2022/08/30 03:11:12;;;;;;;;;;;18.50;60.60;;;14.37;100.00;95703.53;4957724;28;19956;-44
2022/08/30 03:13:39;;;;;;;;;;;18.50;60.70;;;14.32;100.00;95705.19;4971204;28;19909;-44
2022/08/30 03:16:07;;;;;;;;;;;18.40;60.80;;;14.30;100.00;95698.53;4971621;28;19964;-45
2022/08/30 03:18:41;;;;;;;;;;;18.40;60.90;;;14.28;99.92;95700.69;4971496;28;19913;-45
2022/08/30 03:21:14;;;;;;;;;;;18.30;60.90;;;14.24;99.82;95696.97;4963847;28;19964;-44
2022/08/30 03:23:44;;;;;;;;;;;18.30;61.00;;;14.20;99.71;95696.75;4968659;28;19928;-50
2022/08/30 03:26:13;;;;;;;;;;;18.30;61.10;;;14.17;99.86;95694.66;4951500;28;19940;-46
2022/08/30 03:28:45;;;;;;;;;;;18.30;61.20;;;14.16;100.00;95694.91;4950611;28;19941;-45
2022/08/30 03:31:12;;;;;;;;;;;18.20;61.20;;;14.14;100.00;95692.53;4952763;28;19913;-44
2022/08/30 03:33:39;;;;;;;;;;;18.20;61.30;;;14.12;100.00;95689.31;4951046;29;19906;-50
2022/08/30 03:36:06;;;;;;;;;;;18.20;61.40;;;14.11;100.00;95698.47;4954896;28;19909;-46
2022/08/30 03:38:32;;;;;;;;;;;18.20;61.50;;;14.05;100.00;95686.19;4967129;28;19913;-48
2022/08/30 03:41:10;;;;;;;;;;;18.10;61.50;;;14.12;100.00;95692.00;4963022;28;20379;-47
2022/08/30 03:43:36;;;;;;;;;;;18.10;61.60;;;14.18;100.00;95692.75;4957416;28;19932;-49
2022/08/30 03:46:06;;;;;;;;;;;18.10;62.60;;;14.19;100.00;95687.09;4971450;28;20470;-45
2022/08/30 03:48:42;;;;;;;;;;;18.20;61.90;;;14.22;100.00;95693.78;4952155;28;19980;-46
2022/08/30 03:51:14;;;;;;;;;;;18.20;62.00;;;14.25;100.00;95698.56;4954745;28;19927;-49
2022/08/30 03:53:40;;;;;;;;;;;18.20;62.10;;;14.26;100.00;95694.81;4966677;28;19905;-49
2022/08/30 03:56:06;;;;;;;;;;;18.20;62.10;;;14.25;100.00;95703.94;4971149;28;20257;-47
2022/08/30 03:58:31;;;;;;;;;;;18.20;62.10;;;14.31;100.00;95689.41;4964009;28;19925;-45
2022/08/30 04:01:03;;;;;;;;;;;18.20;62.20;;;14.38;100.00;95705.13;4970272;28;20272;-46
2022/08/30 04:03:32;;;;;;;;;;;18.20;62.30;;;14.42;100.00;95703.50;4961245;28;19960;-46
2022/08/30 04:06:05;;;;;;;;;;;18.30;62.40;;;14.43;100.00;95695.16;4964346;28;20005;-44
2022/08/30 04:08:30;;;;;;;;;;;18.30;62.40;;;14.46;100.00;95696.47;4971018;28;19912;-51
2022/08/30 04:10:56;;;;;;;;;;;18.30;62.50;;;14.52;100.00;95698.81;4972044;28;19913;-44
2022/08/30 04:13:24;;;;;;;;;;;18.30;62.60;;;14.62;100.00;95699.78;4981863;28;19928;-44
2022/08/30 04:15:50;;;;;;;;;;;18.40;62.80;;;14.70;100.00;95702.63;4989349;28;20004;-47
2022/08/30 04:18:31;;;;;;;;;;;18.50;63.00;;;14.81;100.00;95698.72;4982518;28;20295;-44
2022/08/30 04:21:00;;;;;;;;;;;18.60;63.30;;;14.87;100.00;95704.81;4993337;28;19905;-44
2022/08/30 04:23:29;;;;;;;;;;;18.60;63.30;;;14.92;100.00;95704.78;4994289;28;19987;-44
2022/08/30 04:25:55;;;;;;;;;;;18.70;63.30;;;14.95;100.00;95706.88;4967396;28;19912;-45
2022/08/30 04:28:22;;;;;;;;;;;18.80;63.30;;;14.98;100.00;95708.97;4975000;28;19909;-46
2022/08/30 04:30:50;;;;;;;;;;;18.90;63.30;;;15.01;100.00;95707.59;4994473;28;19905;-46
2022/08/30 04:33:16;;;;;;;;;;;18.90;63.30;;;15.04;100.00;95710.50;4976664;28;19947;-44
2022/08/30 04:35:46;;;;;;;;;;;18.90;63.30;;;15.08;100.00;95707.25;4965017;28;20000;-46
2022/08/30 04:38:13;;;;;;;;;;;19.00;63.30;;;15.13;100.00;95699.91;4992737;28;19913;-47
2022/08/30 04:40:47;;;;;;;;;;;19.00;63.30;;;15.16;100.00;95711.94;4991586;28;19905;-47
2022/08/30 04:43:13;;;;;;;;;;;19.00;63.30;;;15.16;100.00;95715.41;4968847;28;20005;-45
2022/08/30 04:45:41;;;;;;;;;;;19.10;63.30;;;15.19;100.00;95716.72;4993035;28;19912;-46
2022/08/30 04:48:07;;;;;;;;;;;19.10;63.20;;;15.19;99.68;95719.41;4949698;28;19944;-46
2022/08/30 04:50:42;;;;;;;;;;;19.10;63.20;;;15.20;99.31;95718.34;4963225;28;19913;-44
2022/08/30 04:53:12;;;;;;;;;;;19.20;63.20;;;15.22;98.71;95722.31;4958330;28;19952;-45
2022/08/30 04:55:41;;;;;;;;;;;19.20;63.20;;;15.24;98.50;95728.19;4946022;28;20045;-45
2022/08/30 04:58:10;;;;;;;;;;;19.20;63.10;;;15.28;98.38;95741.81;4962853;28;19910;-47
2022/08/30 05:00:40;;;;;;;;;;;19.20;63.10;;;15.33;98.21;95736.41;4957724;28;19909;-47
2022/08/30 05:03:06;;;;;;;;;;;19.30;63.20;;;15.41;97.83;95734.94;4955617;28;20345;-45
2022/08/30 05:05:38;;;;;;;;;;;19.30;63.10;;;15.53;97.29;95751.41;4966052;28;19955;-44
2022/08/30 05:08:14;;;;;;;;;;;19.50;63.20;;;15.67;96.50;95741.56;4956621;28;19912;-46
2022/08/30 05:10:44;;;;;;;;;;;19.50;63.10;;;15.81;95.95;95757.69;4949036;28;20286;-47
2022/08/30 05:13:11;;;;;;;;;;;19.60;63.10;;;15.93;95.30;95749.97;4964069;28;19912;-44
2022/08/30 05:15:44;;;;;;;;;;;19.70;63.00;;;16.09;95.03;95757.78;4956648;28;19929;-44
2022/08/30 05:18:10;;;;;;;;;;;19.90;62.90;;;16.21;94.11;95762.69;4957942;28;20031;-46
2022/08/30 05:20:38;;;;;;;;;;;20.00;62.80;;;16.31;93.64;95757.94;4954647;28;20496;-44
2022/08/30 05:23:05;;;;;;;;;;;20.10;62.70;;;16.34;93.39;95764.59;4942847;28;19910;-45
2022/08/30 05:25:37;;;;;;;;;;;20.10;62.60;;;16.36;93.23;95770.50;4959091;28;19913;-45
2022/08/30 05:28:07;;;;;;;;;;;20.30;62.50;;;16.39;93.34;95772.59;4955493;28;20006;-44
2022/08/30 05:30:36;;;;;;;;;;;20.40;62.40;;;16.45;93.09;95781.34;4966781;28;20025;-44
2022/08/30 05:33:02;;;;;;;;;;;20.50;62.30;;;16.50;93.38;95783.94;4960685;28;20000;-44
2022/08/30 05:35:28;;;;;;;;;;;20.50;62.10;;;16.59;93.01;95782.97;4960917;28;19960;-45
2022/08/30 05:37:54;;;;;;;;;;;20.70;62.00;;;16.76;93.54;95784.28;4957620;28;19917;-45
2022/08/30 05:40:22;;;;;;;;;;;20.80;61.80;;;16.82;92.55;95783.88;4957821;28;20257;-46
2022/08/30 05:42:55;;;;;;;;;;;20.90;61.60;;;16.83;91.75;95785.50;4962906;28;20377;-45
2022/08/30 05:45:21;;;;;;;;;;;21.00;61.50;;;16.85;91.38;95788.66;4956464;28;19916;-48
2022/08/30 05:47:46;;;;;;;;;;;21.10;61.40;;;16.87;91.32;95774.94;4972078;28;19906;-45
2022/08/30 05:50:13;;;;;;;;;;;21.20;61.30;;;16.90;91.68;95782.41;4965979;28;19916;-46
2022/08/30 05:52:41;;;;;;;;;;;21.30;61.10;;;16.91;91.54;95785.88;4971102;28;19941;-48
2022/08/30 05:55:12;;;;;;;;;;;21.40;61.00;;;16.95;91.62;95779.59;4952727;28;19956;-44
2022/08/30 05:57:39;;;;;;;;;;;21.40;60.90;;;17.00;91.19;95778.72;4965478;28;19913;-44
2022/08/30 06:00:13;;;;;;;;;;;21.40;60.70;;;17.01;91.50;95775.69;4954041;28;19921;-44
2022/08/30 06:02:40;;;;;;;;;;;21.40;60.60;;;17.10;91.48;95773.91;4953648;28;20296;-45
2022/08/30 06:05:07;;;;;;;;;;;21.50;60.60;;;17.32;91.00;95773.16;4961343;28;20270;-46
2022/08/30 06:07:33;;;;;;;;;;;21.70;60.40;;;17.63;90.53;95766.31;4928971;28;23024;-44
2022/08/30 06:10:05;;;;;;;;;;;22.00;60.30;;;17.89;88.31;95759.22;4961349;28;19975;-46
2022/08/30 06:12:37;;;;;;;;;;;22.30;60.00;;;18.22;86.55;95759.78;4980602;28;19920;-45
2022/08/30 06:15:06;;;;;;;;;;;22.70;59.80;;;18.55;84.67;95767.56;4960673;28;19956;-45
2022/08/30 06:17:38;;;;;;;;;;;23.00;59.60;;;18.73;83.03;95766.53;4961126;28;19964;-44
2022/08/30 06:20:08;;;;;;;;;;;23.20;59.30;;;18.95;81.79;95764.88;4964137;28;20411;-45
2022/08/30 06:22:34;;;;;;;;;;;23.50;59.10;;;18.95;81.05;95768.34;4963950;28;20108;-44
2022/08/30 06:25:11;;;;;;;;;;;23.60;59.00;;;18.99;80.98;95765.03;4942196;28;19910;-44
2022/08/30 06:27:41;;;;;;;;;;;23.60;58.80;;;18.88;81.45;95772.63;4968770;28;19906;-45
2022/08/30 06:30:09;;;;;;;;;;;23.60;58.70;;;18.84;81.27;95772.47;4967719;28;19913;-45
2022/08/30 06:32:37;;;;;;;;;;;23.70;58.50;;;19.13;79.91;95763.00;4952868;28;19912;-45
2022/08/30 06:35:06;;;;;;;;;;;23.90;58.40;;;19.39;79.39;95773.84;4958949;28;19910;-46
2022/08/30 06:37:34;;;;;;;;;;;24.10;58.30;;;19.64;77.89;95775.81;4966218;28;20382;-45
2022/08/30 06:40:02;;;;;;;;;;;24.30;58.10;;;19.67;76.78;95768.97;4967796;28;19920;-45
2022/08/30 06:42:32;;;;;;;;;;;24.50;57.90;;;19.86;76.63;95776.75;4976031;28;20268;-47
2022/08/30 06:45:00;;;;;;;;;;;24.70;57.80;;;20.13;75.26;95769.44;4967480;28;20301;-48
2022/08/30 06:47:28;;;;;;;;;;;24.90;57.60;;;20.43;74.52;95773.81;4972619;28;20044;-45
2022/08/30 06:49:57;;;;;;;;;;;25.20;57.40;;;20.69;73.14;95772.97;4960900;28;20017;-46
2022/08/30 06:52:26;;;;;;;;;;;25.50;57.20;;;20.80;72.84;95766.06;4972273;28;20016;-45
2022/08/30 06:54:55;;;;;;;;;;;25.80;56.90;;;20.84;71.55;95769.72;4972093;28;20008;-47
2022/08/30 06:57:20;;;;;;;;;;;26.00;56.60;;;20.95;71.41;95765.53;4959245;28;19910;-45
2022/08/30 06:59:46;;;;;;;;;;;26.30;56.20;;;21.11;70.66;95765.75;4948069;28;22012;-46
2022/08/30 07:02:14;;;;;;;;;;;26.50;55.90;;;21.21;69.98;95762.66;4951575;28;19913;-46
2022/08/30 07:04:43;;;;;;;;;;;26.70;55.60;;;21.47;69.00;95767.97;4952875;28;19941;-46
2022/08/30 07:07:10;;;;;;;;;;;26.90;55.30;;;21.70;68.23;95749.44;4952677;28;19944;-45
2022/08/30 07:09:42;;;;;;;;;;;27.10;55.00;;;21.97;67.52;95757.34;4950878;28;20021;-48
2022/08/30 07:12:12;;;;;;;;;;;27.30;54.80;;;22.26;66.17;95761.91;4966581;28;19983;-46
2022/08/30 07:14:39;;;;;;;;;;;27.60;54.50;;;22.45;65.19;95759.44;4959697;28;19909;-46
2022/08/30 07:20:04;;;;;;;;;;;28.10;53.90;;;23.04;63.37;95755.59;4950439;28;19913;-46
2022/08/30 07:22:33;;;;;;;;;;;28.40;53.50;;;23.30;62.14;95750.56;4969355;28;19959;-46
2022/08/30 07:25:00;;;;;;;;;;;28.70;53.30;;;23.62;61.62;95753.44;4971900;28;20004;-46
2022/08/30 07:27:30;;;;;;;;;;;29.00;53.00;;;23.92;60.31;95753.16;4971674;28;19940;-49
2022/08/30 07:29:57;;;;;;;;;;;29.20;52.70;;;24.01;59.72;95745.66;4958097;28;19906;-48
2022/08/30 07:32:29;;;;;;;;;;;29.50;52.40;;;23.93;58.70;95746.56;4971637;28;19913;-46
2022/08/30 07:34:55;;;;;;;;;;;29.50;52.10;;;24.10;58.79;95745.47;4971434;28;19906;-45
2022/08/30 07:37:29;;;;;;;;;;;29.60;51.80;;;24.39;58.39;95747.03;4970159;28;19906;-45
2022/08/30 07:40:17;;;;;;;;;;;29.90;51.60;;;24.75;57.80;95742.53;4971383;28;19910;-45
2022/08/30 07:42:43;;;;;;;;;;;30.10;51.20;;;24.97;56.75;95746.56;4971841;28;19906;-47
2022/08/30 07:45:10;;;;;;;;;;;30.50;51.00;;;25.36;55.24;95744.78;4971495;28;19905;-46
2022/08/30 07:47:40;;;;;;;;;;;30.70;50.70;;;25.65;54.36;95746.16;4942886;29;20387;-47
2022/08/30 07:50:07;;;;;;;;;;;31.10;50.50;;;25.63;54.07;95740.28;4960933;28;19906;-46
2022/08/30 07:52:33;;;;;;;;;;;31.40;50.10;;;25.90;51.85;95745.94;4960893;28;20016;-52
2022/08/30 07:55:00;;;;;;;;;;;31.70;49.80;;;26.14;51.22;95744.84;4969805;28;20053;-47
2022/08/30 07:57:27;;;;;;;;;;;31.90;49.30;;;26.40;51.52;95747.66;4970038;28;19912;-46
2022/08/30 07:59:53;;;;;;;;;;;32.20;49.00;;;26.63;50.56;95739.50;4955921;28;19906;-46
2022/08/30 08:02:19;;;;;;;;;;;32.60;48.80;;;26.90;50.70;95743.09;4962320;28;19913;-46
2022/08/30 08:04:47;;;;;;;;;;;32.90;48.40;;;27.28;49.74;95746.03;4964057;28;19906;-47
2022/08/30 08:07:13;;;;;;;;;;;33.20;48.00;;;27.40;49.19;95743.09;4960307;28;20360;-46
2022/08/30 08:09:39;;;;;;;;;;;33.60;47.60;;;27.74;48.72;95745.91;4954674;28;19906;-46
2022/08/30 08:12:07;;;;;;;;;;;33.90;47.10;;;27.98;48.43;95750.91;4971387;28;19923;-46
2022/08/30 08:14:34;;;;;;;;;;;34.20;46.70;;;28.20;47.38;95756.63;4961893;28;19917;-51
2022/08/30 08:17:04;;;;;;;;;;;34.40;46.40;;;28.22;47.42;95752.34;4971060;28;19905;-46
2022/08/30 08:19:30;;;;;;;;;;;34.70;46.00;;;28.47;46.75;95755.38;4962102;28;19914;-48
2022/08/30 08:21:59;;;;;;;;;;;34.80;45.70;;;28.57;46.67;95751.19;4953740;28;20064;-47
2022/08/30 08:24:31;;;;;;;;;;;35.00;45.40;;;28.79;45.82;95760.38;4970557;28;19913;-49
2022/08/30 08:27:06;;;;;;;;;;;35.20;45.00;;;29.17;44.40;95770.13;4954358;28;20259;-50
2022/08/30 08:29:32;;;;;;;;;;;35.40;44.60;;;29.47;43.61;95766.41;4967505;28;19983;-47
2022/08/30 08:32:01;;;;;;;;;;;35.60;44.40;;;29.60;43.49;95767.66;4955009;28;19906;-47
2022/08/30 08:34:27;;;;;;;;;;;35.70;44.20;;;29.41;43.51;95765.97;4955652;28;20358;-47
2022/08/30 08:36:59;;;;;;;;;;;35.70;44.00;;;29.36;43.89;95760.84;4946959;28;19996;-46
2022/08/30 08:39:43;;;;;;;;;;;35.60;43.70;;;29.15;44.20;95757.97;4970220;28;19917;-46
2022/08/30 08:42:50;;;;;;;;;;;35.60;43.40;;;29.11;45.20;95752.44;4945373;28;20013;-46
2022/08/30 08:45:30;;;;;;;;;;;35.50;43.10;;;29.04;45.53;95749.66;4963458;28;19906;-47
2022/08/30 08:48:06;;;;;;;;;;;35.40;43.00;;;29.13;45.36;95741.09;4955225;28;19905;-47
2022/08/30 08:50:32;;;;;;;;;;;35.60;42.70;;;29.32;44.84;95746.31;4966802;28;19909;-47
2022/08/30 08:53:34;;;;;;;;;;;35.70;42.40;;;29.23;45.30;95741.16;4943871;28;19913;-49
2022/08/30 08:56:06;;;;;;;;;;;35.80;42.00;;;29.18;45.06;95740.75;4962093;28;20290;-47
2022/08/30 08:58:47;;;;;;;;;;;35.80;41.90;;;29.31;45.27;95742.03;4973988;28;19964;-47
2022/08/30 09:01:17;;;;;;;;;;;35.80;41.90;;;29.28;45.54;95743.56;4988906;28;19952;-48
2022/08/30 09:03:45;;;;;;;;;;;35.80;41.90;;;29.13;45.70;95747.38;4970290;28;19909;-46
2022/08/30 09:06:37;;;;;;;;;;;35.80;41.90;;;29.01;47.40;95748.44;4955303;28;19968;-48
2022/08/30 09:09:03;;;;;;;;;;;35.70;41.80;;;29.06;46.99;95752.81;4953447;28;19913;-47
2022/08/30 09:11:34;;;;;;;;;;;35.70;41.70;;;29.08;46.67;95744.97;4968533;28;20273;-46
2022/08/30 09:14:00;;;;;;;;;;;35.60;41.50;;;29.08;46.39;95753.19;4956593;28;19909;-46
2022/08/30 09:17:09;;;;;;;;;;;35.60;41.50;;;29.19;46.16;95759.56;4964970;28;19913;-47
2022/08/30 09:20:01;;;;;;;;;;;35.60;41.40;;;29.02;46.55;95752.78;4963171;28;19917;-47
2022/08/30 09:22:37;;;;;;;;;;;35.70;42.00;;;29.00;47.06;95768.78;4961873;28;19909;-46
2022/08/30 09:25:25;;;;;;;;;;;35.60;41.30;;;28.58;47.25;95758.22;4973954;28;19909;-47
2022/08/30 09:28:11;;;;;;;;;;;35.40;41.30;;;28.56;47.51;95755.09;4945372;28;20288;-47
2022/08/30 09:30:37;;;;;;;;;;;35.20;41.20;;;28.44;48.08;95752.63;4954665;28;20320;-47
2022/08/30 09:33:17;;;;;;;;;;;35.10;41.10;;;28.45;47.95;95745.97;4965871;28;20011;-48
2022/08/30 09:36:49;;;;;;;;;;;35.10;41.00;;;28.65;46.82;95746.56;4963395;28;19910;-49
2022/08/30 09:39:14;;;;;;;;;;;35.30;40.80;;;29.09;47.34;95749.31;4966902;28;19909;-49
2022/08/30 09:41:48;;;;;;;;;;;35.70;40.60;;;29.33;46.94;95741.63;4988322;28;20024;-47
2022/08/30 09:44:29;;;;;;;;;;;36.00;40.50;;;29.33;45.96;95742.41;4959558;28;19905;-47
2022/08/30 09:47:00;;;;;;;;;;;36.30;39.90;;;29.40;44.31;95737.00;4973481;28;19906;-48
2022/08/30 09:49:32;;;;;;;;;;;36.70;39.50;;;29.27;45.87;95735.69;4972283;28;20351;-47
2022/08/30 09:52:18;;;;;;;;;;;36.90;39.10;;;29.45;45.31;95731.13;4972443;28;19928;-47
2022/08/30 09:55:13;;;;;;;;;;;37.00;38.90;;;29.44;44.81;95734.25;4933970;28;24832;-53
2022/08/30 09:58:35;;;;;;;;;;;36.80;38.80;;;29.28;44.62;95735.34;4953227;28;19910;-51
2022/08/30 10:01:30;;;;;;;;;;;36.60;38.80;;;29.84;44.48;95730.56;4953934;28;20009;-50
2022/08/30 10:04:24;;;;;;;;;;;36.60;38.90;;;30.20;44.09;95727.97;4952829;28;20308;-50
2022/08/30 10:06:59;;;;;;;;;;;36.70;38.80;;;30.41;43.51;95719.78;4952849;28;19916;-49
2022/08/30 10:09:48;;;;;;;;;;;36.90;38.70;;;30.29;43.53;95730.34;4937352;28;19906;-49
2022/08/30 10:12:46;;;;;;;;;;;37.10;38.50;;;30.18;44.10;95725.59;4948912;28;20268;-49
2022/08/30 10:15:31;;;;;;;;;;;37.30;38.30;;;30.23;44.04;95729.16;4953935;28;19913;-51
2022/08/30 10:18:24;;;;;;;;;;;37.30;38.10;;;30.32;43.30;95726.84;4952419;28;19910;-51
2022/08/30 10:21:35;;;;;;;;;;;37.30;38.10;;;30.30;42.96;95729.19;4953515;28;19906;-50
2022/08/30 10:24:16;;;;;;;;;;;37.40;38.10;;;30.85;43.54;95723.41;4953377;28;19956;-51
2022/08/30 10:27:15;;;;;;;;;;;37.40;38.00;;;30.83;42.34;95717.50;4953194;28;19913;-53
2022/08/30 10:30:10;;;;;;;;;;;37.60;37.80;;;30.99;42.00;95711.59;4952740;28;20292;-51
2022/08/30 10:33:25;;;;;;;;;;;37.70;37.60;;;31.40;41.08;95714.72;4952116;28;19968;-54
2022/08/30 10:36:09;;;;;;;;;;;38.00;37.40;;;31.41;40.40;95715.50;4936445;28;19960;-54
2022/08/30 10:38:51;;;;;;;;;;;38.30;37.30;;;31.20;41.27;95703.31;4936667;28;19953;-52
2022/08/30 10:41:40;;;;;;;;;;;38.50;36.90;;;31.36;40.63;95702.94;4951671;28;20344;-53
2022/08/30 10:44:30;;;;;;;;;;;38.80;36.70;;;31.26;40.29;95692.72;4952249;28;19929;-49
2022/08/30 10:47:33;;;;;;;;;;;38.50;36.60;;;30.87;41.31;95697.09;4953217;28;19960;-52
2022/08/30 10:50:15;;;;;;;;;;;38.20;36.70;;;30.78;41.63;95699.44;4953145;28;19949;-53
2022/08/30 10:53:10;;;;;;;;;;;37.80;36.60;;;30.86;41.76;95701.00;4951777;28;20280;-53
2022/08/30 10:55:54;;;;;;;;;;;37.70;36.50;;;30.79;41.83;95700.22;4927590;28;19921;-49
2022/08/30 10:58:20;;;;;;;;;;;37.70;36.60;;;30.73;42.84;95697.03;4936533;28;19932;-49
2022/08/30 11:01:35;;;;;;;;;;;37.60;36.60;;;30.77;42.89;95700.59;4966992;28;19912;-51
2022/08/30 11:04:53;;;;;;;;;;;37.50;36.60;;;30.90;42.62;95695.50;4971830;28;19914;-52
2022/08/30 11:08:05;;;;;;;;;;;37.60;36.50;;;31.15;41.56;95694.69;4972169;28;19905;-50
2022/08/30 11:11:13;;;;;;;;;;;37.80;36.50;;;31.09;41.76;95697.06;4996322;23;20019;-54
2022/08/30 11:13:44;;;;;;;;;;;37.90;36.40;;;31.06;41.11;95692.34;4976430;28;20008;-48
2022/08/30 11:16:18;;;;;;;;;;;37.80;36.50;;;30.88;41.81;95687.66;4971091;28;19914;-47
2022/08/30 11:19:20;;;;;;;;;;;37.70;36.30;;;31.03;41.12;95690.41;4970744;28;20284;-47
2022/08/30 11:21:48;;;;;;;;;;;37.60;36.30;;;31.03;40.53;95682.94;4957633;28;19906;-50
2022/08/30 11:25:34;;;;;;;;;;;37.50;36.30;;;30.92;41.12;95689.59;4951587;28;19992;-46
2022/08/30 11:28:05;;;;;;;;;;;37.40;36.30;;;30.75;41.01;95688.41;4950892;28;19941;-46
2022/08/30 11:30:36;;;;;;;;;;;37.30;36.30;;;30.72;42.15;95673.50;4958192;28;20276;-46
2022/08/30 11:33:28;;;;;;;;;;;37.20;36.40;;;30.45;41.95;95678.56;4969693;28;19909;-46
2022/08/30 11:35:57;;;;;;;;;;;37.00;36.30;;;30.32;42.51;95680.91;4971858;28;19906;-46
2022/08/30 11:38:26;;;;;;;;;;;36.80;36.40;;;30.05;42.22;95676.91;4954262;28;19914;-47
2022/08/30 11:40:55;;;;;;;;;;;36.60;36.40;;;29.45;43.79;95680.94;4970392;28;19992;-46
2022/08/30 11:43:42;;;;;;;;;;;36.40;36.40;;;29.35;45.18;95671.50;4972088;28;19905;-48
2022/08/30 11:46:33;;;;;;;;;;;36.20;36.50;;;29.59;45.41;95672.81;4971643;28;19929;-48
2022/08/30 11:49:14;;;;;;;;;;;36.10;36.60;;;29.81;44.14;95675.66;4970274;28;20027;-48
2022/08/30 11:52:04;;;;;;;;;;;36.20;36.80;;;29.84;45.34;95674.88;4970560;28;19951;-52